Terminal Aerodrome Forecast
Issued by NWS

Home | Current Version | Previous Version | Text Only | Print | Product List | Glossary Off
Versions: 1 2 3 4 5 6 7 8 9 10 11 12 13 14 15 16 17 18 19 20 21 22 23 24 25 26 27 28 29 30 31 32 33

286
FTUS43 KLOT 270540
TAFDPA
TAF
KDPA 270540Z 2706/2806 06013KT P6SM OVC014
     FM271500 07015G21KT P6SM BKN018 BKN040
     FM272100 07016G23KT P6SM SCT030 OVC050
     FM280200 08015KT 3SM SHRA BKN020=

USA.gov is the U.S. government's official web portal to all federal, state and local government web resources and services.